PHHCM EHLE-EHLE
Flight info
| Callsign | PHHCM |
|---|---|
| Flight time | 0h 45m |
| Altitude | 1500 |
| Route | BRAVO DCT LEERDAM DCT HILVERSUM DCT HUIZEN DCT |
| Aircraft | R66/L-SY/S |
Departure
| Time | 2026-04-23 19:25 |
|---|---|
| Airport | Lelystad Airport (EHLE) |
Arrival
| Time | 2026-04-23 20:10 |
|---|---|
| Airport | Lelystad Airport (EHLE) |
| Time | Latitude | Longitude | Altitude | Speed | Heading |
|---|---|---|---|---|---|
| 2026-04-23 19:17 | 52.45322 | 5.51936 | -11 ft | 0 kts | 49° |
| 2026-04-23 19:22 | 52.45331 | 5.51913 | 2 ft | 9 kts | 340° |
| 2026-04-23 19:23 | 52.45384 | 5.51943 | -3 ft | 10 kts | 345° |
| 2026-04-23 19:23 | 52.45424 | 5.51895 | 5 ft | 2 kts | 326° |
| 2026-04-23 19:23 | 52.45485 | 5.51798 | 11 ft | 15 kts | 12° |
| 2026-04-23 19:24 | 52.45421 | 5.51900 | -11 ft | 0 kts | 317° |
| 2026-04-23 19:24 | 52.45576 | 5.51919 | 20 ft | 52 kts | 43° |
| 2026-04-23 19:25 | 52.46022 | 5.52789 | 637 ft | 58 kts | 54° |
| 2026-04-23 19:25 | 52.45145 | 5.53562 | 877 ft | 106 kts | 196° |
| 2026-04-23 19:26 | 52.43638 | 5.53916 | 1131 ft | 119 kts | 144° |
| 2026-04-23 19:26 | 52.42936 | 5.54755 | 1105 ft | 132 kts | 137° |
| 2026-04-23 19:27 | 52.41440 | 5.56758 | 1031 ft | 141 kts | 134° |
| 2026-04-23 19:27 | 52.38878 | 5.58542 | 1326 ft | 131 kts | 174° |
| 2026-04-23 19:28 | 52.37047 | 5.58763 | 1415 ft | 137 kts | 166° |
| 2026-04-23 19:28 | 52.35072 | 5.59081 | 1416 ft | 149 kts | 187° |
| 2026-04-23 19:29 | 52.34073 | 5.58592 | 1416 ft | 151 kts | 207° |
| 2026-04-23 19:29 | 52.32431 | 5.56720 | 1415 ft | 148 kts | 223° |
| 2026-04-23 19:30 | 52.30827 | 5.54622 | 1413 ft | 149 kts | 219° |
| 2026-04-23 19:30 | 52.29985 | 5.53642 | 1414 ft | 148 kts | 217° |
| 2026-04-23 19:30 | 52.28260 | 5.51762 | 1414 ft | 150 kts | 216° |
| 2026-04-23 19:31 | 52.27387 | 5.50821 | 1412 ft | 151 kts | 216° |
| 2026-04-23 19:31 | 52.26527 | 5.49892 | 1411 ft | 150 kts | 217° |
| 2026-04-23 19:31 | 52.25660 | 5.48949 | 1411 ft | 149 kts | 218° |
| 2026-04-23 19:31 | 52.24801 | 5.47996 | 1416 ft | 150 kts | 217° |
| 2026-04-23 19:32 | 52.23938 | 5.47031 | 1415 ft | 151 kts | 218° |
| 2026-04-23 19:32 | 52.23074 | 5.46070 | 1413 ft | 151 kts | 217° |
| 2026-04-23 19:32 | 52.22205 | 5.45109 | 1412 ft | 150 kts | 217° |
| 2026-04-23 19:32 | 52.21341 | 5.44151 | 1411 ft | 150 kts | 217° |
| 2026-04-23 19:33 | 52.20478 | 5.43193 | 1408 ft | 149 kts | 217° |
| 2026-04-23 19:33 | 52.19624 | 5.42239 | 1409 ft | 149 kts | 217° |
| 2026-04-23 19:33 | 52.17919 | 5.40338 | 1408 ft | 149 kts | 217° |
| 2026-04-23 19:34 | 52.17064 | 5.39381 | 1409 ft | 149 kts | 217° |
| 2026-04-23 19:34 | 52.16203 | 5.38423 | 1408 ft | 150 kts | 216° |
| 2026-04-23 19:34 | 52.14474 | 5.36523 | 1407 ft | 151 kts | 216° |
| 2026-04-23 19:35 | 52.13615 | 5.35576 | 1403 ft | 151 kts | 216° |
| 2026-04-23 19:35 | 52.12742 | 5.34612 | 1400 ft | 151 kts | 216° |
| 2026-04-23 19:35 | 52.11868 | 5.33646 | 1402 ft | 151 kts | 216° |
| 2026-04-23 19:35 | 52.10998 | 5.32686 | 1399 ft | 151 kts | 216° |
| 2026-04-23 19:36 | 52.10128 | 5.31720 | 1400 ft | 151 kts | 216° |
| 2026-04-23 19:36 | 52.09261 | 5.30754 | 1402 ft | 151 kts | 215° |
| 2026-04-23 19:36 | 52.08395 | 5.29795 | 1403 ft | 150 kts | 216° |
| 2026-04-23 19:36 | 52.07535 | 5.28845 | 1406 ft | 149 kts | 216° |
| 2026-04-23 19:37 | 52.06686 | 5.27898 | 1407 ft | 148 kts | 216° |
| 2026-04-23 19:37 | 52.05833 | 5.26948 | 1404 ft | 149 kts | 215° |
| 2026-04-23 19:37 | 52.04976 | 5.26003 | 1408 ft | 149 kts | 216° |
| 2026-04-23 19:37 | 52.04118 | 5.25062 | 1406 ft | 149 kts | 216° |
| 2026-04-23 19:38 | 52.03261 | 5.24121 | 1404 ft | 149 kts | 216° |
| 2026-04-23 19:38 | 52.02400 | 5.23177 | 1401 ft | 149 kts | 216° |
| 2026-04-23 19:38 | 52.01553 | 5.22251 | 1406 ft | 149 kts | 216° |
| 2026-04-23 19:38 | 52.00693 | 5.21307 | 1405 ft | 149 kts | 216° |
| 2026-04-23 19:39 | 51.99828 | 5.20352 | 1402 ft | 150 kts | 216° |
| 2026-04-23 19:39 | 51.98962 | 5.19401 | 1403 ft | 151 kts | 215° |
| 2026-04-23 19:39 | 51.98092 | 5.18453 | 1404 ft | 150 kts | 215° |
| 2026-04-23 19:39 | 51.97230 | 5.17503 | 1400 ft | 149 kts | 220° |
| 2026-04-23 19:40 | 51.96452 | 5.16412 | 1401 ft | 149 kts | 217° |
| 2026-04-23 19:40 | 51.95563 | 5.15554 | 1396 ft | 148 kts | 208° |
| 2026-04-23 19:40 | 51.94652 | 5.14820 | 1400 ft | 144 kts | 206° |
| 2026-04-23 19:40 | 51.93751 | 5.14119 | 1402 ft | 143 kts | 206° |
| 2026-04-23 19:41 | 51.92859 | 5.13420 | 1401 ft | 142 kts | 206° |
| 2026-04-23 19:41 | 51.91971 | 5.12713 | 1401 ft | 142 kts | 207° |
| 2026-04-23 19:41 | 51.91087 | 5.11999 | 1400 ft | 142 kts | 207° |
| 2026-04-23 19:41 | 51.90207 | 5.11318 | 1392 ft | 133 kts | 204° |
| 2026-04-23 19:42 | 51.89344 | 5.10781 | 1145 ft | 130 kts | 196° |
| 2026-04-23 19:42 | 51.88564 | 5.10393 | 865 ft | 108 kts | 202° |
| 2026-04-23 19:42 | 51.88016 | 5.09865 | 611 ft | 82 kts | 211° |
| 2026-04-23 19:42 | 51.87628 | 5.09405 | 404 ft | 57 kts | 260° |
| 2026-04-23 19:43 | 51.87674 | 5.08900 | 407 ft | 46 kts | 327° |
| 2026-04-23 19:43 | 51.87934 | 5.08800 | 413 ft | 44 kts | 19° |
| 2026-04-23 19:43 | 51.88023 | 5.09250 | 346 ft | 59 kts | 111° |
| 2026-04-23 19:43 | 51.87709 | 5.09510 | 323 ft | 38 kts | 249° |
| 2026-04-23 19:44 | 51.87608 | 5.09167 | 276 ft | 33 kts | 330° |
| 2026-04-23 19:44 | 51.87613 | 5.08881 | 257 ft | 20 kts | 13° |
| 2026-04-23 19:44 | 51.87743 | 5.08774 | 214 ft | 19 kts | 69° |
| 2026-04-23 19:44 | 51.87875 | 5.08971 | 256 ft | 48 kts | 44° |
| 2026-04-23 19:45 | 51.88174 | 5.08927 | 597 ft | 50 kts | 327° |
| 2026-04-23 19:45 | 51.88263 | 5.08280 | 833 ft | 76 kts | 291° |
| 2026-04-23 19:45 | 51.88401 | 5.07335 | 921 ft | 97 kts | 295° |
| 2026-04-23 19:45 | 51.88628 | 5.06192 | 943 ft | 106 kts | 308° |
| 2026-04-23 19:46 | 51.89159 | 5.05511 | 1101 ft | 94 kts | 347° |
| 2026-04-23 19:46 | 51.89855 | 5.05455 | 1000 ft | 104 kts | 13° |
| 2026-04-23 19:46 | 51.90566 | 5.05693 | 1059 ft | 107 kts | 12° |
| 2026-04-23 19:46 | 51.91312 | 5.05936 | 1073 ft | 111 kts | 10° |
| 2026-04-23 19:47 | 51.91820 | 5.06085 | 1079 ft | 112 kts | 9° |
| 2026-04-23 19:47 | 51.92849 | 5.06369 | 1091 ft | 113 kts | 10° |
| 2026-04-23 19:47 | 51.93627 | 5.06595 | 1091 ft | 114 kts | 11° |
| 2026-04-23 19:47 | 51.94418 | 5.06831 | 1091 ft | 116 kts | 11° |
| 2026-04-23 19:48 | 51.95217 | 5.07069 | 1089 ft | 117 kts | 11° |
| 2026-04-23 19:48 | 51.96017 | 5.07308 | 1090 ft | 117 kts | 11° |
| 2026-04-23 19:48 | 51.96802 | 5.07549 | 1091 ft | 117 kts | 11° |
| 2026-04-23 19:48 | 51.97613 | 5.07803 | 1091 ft | 117 kts | 11° |
| 2026-04-23 19:49 | 51.98411 | 5.08055 | 1096 ft | 117 kts | 11° |
| 2026-04-23 19:49 | 51.99204 | 5.08300 | 1094 ft | 117 kts | 11° |
| 2026-04-23 19:49 | 52.00001 | 5.08548 | 1091 ft | 116 kts | 11° |
| 2026-04-23 19:49 | 52.00796 | 5.08800 | 1096 ft | 117 kts | 11° |
| 2026-04-23 19:50 | 52.01596 | 5.09055 | 1089 ft | 117 kts | 11° |
| 2026-04-23 19:50 | 52.02394 | 5.09311 | 1097 ft | 117 kts | 11° |
| 2026-04-23 19:50 | 52.03188 | 5.09572 | 1094 ft | 116 kts | 11° |
| 2026-04-23 19:50 | 52.03977 | 5.09834 | 1097 ft | 116 kts | 11° |
| 2026-04-23 19:51 | 52.04768 | 5.10093 | 1096 ft | 116 kts | 11° |
| 2026-04-23 19:51 | 52.05554 | 5.10343 | 1096 ft | 115 kts | 10° |
| 2026-04-23 19:51 | 52.06340 | 5.10594 | 1096 ft | 115 kts | 10° |
| 2026-04-23 19:51 | 52.07125 | 5.10846 | 1098 ft | 115 kts | 11° |
| 2026-04-23 19:52 | 52.07647 | 5.11015 | 1094 ft | 116 kts | 11° |
| 2026-04-23 19:52 | 52.08703 | 5.11354 | 1100 ft | 116 kts | 11° |
| 2026-04-23 19:52 | 52.09482 | 5.11662 | 1097 ft | 115 kts | 18° |
| 2026-04-23 19:52 | 52.10212 | 5.12198 | 1095 ft | 115 kts | 25° |
| 2026-04-23 19:53 | 52.10915 | 5.12826 | 1096 ft | 116 kts | 27° |
| 2026-04-23 19:53 | 52.11614 | 5.13473 | 1099 ft | 115 kts | 27° |
| 2026-04-23 19:53 | 52.12305 | 5.14107 | 1097 ft | 114 kts | 26° |
| 2026-04-23 19:53 | 52.13006 | 5.14724 | 1096 ft | 114 kts | 26° |
| 2026-04-23 19:54 | 52.13715 | 5.15308 | 1097 ft | 115 kts | 25° |
| 2026-04-23 19:54 | 52.14436 | 5.15875 | 1101 ft | 115 kts | 23° |
| 2026-04-23 19:54 | 52.15154 | 5.16401 | 1108 ft | 107 kts | 19° |
| 2026-04-23 19:54 | 52.15836 | 5.16780 | 1035 ft | 105 kts | 17° |
| 2026-04-23 19:55 | 52.16533 | 5.17178 | 891 ft | 109 kts | 17° |
| 2026-04-23 19:55 | 52.17259 | 5.17540 | 774 ft | 109 kts | 14° |
| 2026-04-23 19:55 | 52.17966 | 5.17953 | 692 ft | 108 kts | 23° |
| 2026-04-23 19:55 | 52.18603 | 5.18301 | 610 ft | 91 kts | 327° |
| 2026-04-23 19:56 | 52.18610 | 5.17427 | 676 ft | 86 kts | 227° |
| 2026-04-23 19:56 | 52.18060 | 5.17355 | 587 ft | 79 kts | 129° |
| 2026-04-23 19:56 | 52.18023 | 5.18055 | 619 ft | 60 kts | 40° |
| 2026-04-23 19:56 | 52.18253 | 5.18273 | 649 ft | 59 kts | 11° |
| 2026-04-23 19:57 | 52.18645 | 5.18232 | 669 ft | 61 kts | 320° |
| 2026-04-23 19:57 | 52.18620 | 5.17501 | 623 ft | 84 kts | 227° |
| 2026-04-23 19:57 | 52.18124 | 5.17452 | 673 ft | 71 kts | 123° |
| 2026-04-23 19:57 | 52.18113 | 5.18114 | 658 ft | 62 kts | 40° |
| 2026-04-23 19:58 | 52.18523 | 5.18258 | 618 ft | 65 kts | 348° |
| 2026-04-23 19:58 | 52.18985 | 5.18207 | 702 ft | 64 kts | 1° |
| 2026-04-23 19:58 | 52.19389 | 5.18343 | 870 ft | 61 kts | 21° |
| 2026-04-23 19:58 | 52.19802 | 5.18665 | 992 ft | 67 kts | 20° |
| 2026-04-23 19:59 | 52.20237 | 5.18985 | 1159 ft | 72 kts | 19° |
| 2026-04-23 19:59 | 52.20741 | 5.19348 | 1191 ft | 86 kts | 23° |
| 2026-04-23 19:59 | 52.21278 | 5.19899 | 1185 ft | 95 kts | 30° |
| 2026-04-23 19:59 | 52.21832 | 5.20560 | 1185 ft | 101 kts | 32° |
| 2026-04-23 20:00 | 52.22399 | 5.21328 | 1184 ft | 111 kts | 38° |
| 2026-04-23 20:00 | 52.22989 | 5.22199 | 1182 ft | 116 kts | 37° |
| 2026-04-23 20:00 | 52.23608 | 5.23065 | 1185 ft | 118 kts | 36° |
| 2026-04-23 20:00 | 52.24251 | 5.23919 | 1185 ft | 120 kts | 35° |
| 2026-04-23 20:01 | 52.24908 | 5.24765 | 1189 ft | 121 kts | 34° |
| 2026-04-23 20:01 | 52.25573 | 5.25604 | 1188 ft | 121 kts | 33° |
| 2026-04-23 20:01 | 52.26227 | 5.26428 | 1187 ft | 120 kts | 34° |
| 2026-04-23 20:01 | 52.26891 | 5.27280 | 1185 ft | 120 kts | 35° |
| 2026-04-23 20:02 | 52.27541 | 5.28126 | 1185 ft | 121 kts | 34° |
| 2026-04-23 20:02 | 52.28202 | 5.28984 | 1186 ft | 121 kts | 34° |
| 2026-04-23 20:02 | 52.28858 | 5.29834 | 1192 ft | 120 kts | 34° |
| 2026-04-23 20:02 | 52.29516 | 5.30684 | 1187 ft | 120 kts | 34° |
| 2026-04-23 20:03 | 52.30171 | 5.31533 | 1190 ft | 120 kts | 34° |
| 2026-04-23 20:03 | 52.30827 | 5.32384 | 1188 ft | 120 kts | 34° |
| 2026-04-23 20:03 | 52.31487 | 5.33240 | 1189 ft | 121 kts | 34° |
| 2026-04-23 20:03 | 52.32146 | 5.34090 | 1188 ft | 120 kts | 33° |
| 2026-04-23 20:04 | 52.32799 | 5.34935 | 1192 ft | 119 kts | 34° |
| 2026-04-23 20:04 | 52.33449 | 5.35785 | 1193 ft | 119 kts | 33° |
| 2026-04-23 20:04 | 52.34099 | 5.36628 | 1184 ft | 117 kts | 32° |
| 2026-04-23 20:04 | 52.34724 | 5.37404 | 1186 ft | 109 kts | 32° |
| 2026-04-23 20:05 | 52.35305 | 5.38145 | 1192 ft | 104 kts | 33° |
| 2026-04-23 20:05 | 52.35855 | 5.38877 | 1190 ft | 101 kts | 34° |
| 2026-04-23 20:05 | 52.36397 | 5.39616 | 1189 ft | 102 kts | 33° |
| 2026-04-23 20:05 | 52.36942 | 5.40349 | 1192 ft | 101 kts | 34° |
| 2026-04-23 20:06 | 52.37485 | 5.41071 | 1189 ft | 100 kts | 33° |
| 2026-04-23 20:06 | 52.38006 | 5.41733 | 1195 ft | 93 kts | 33° |
| 2026-04-23 20:06 | 52.38567 | 5.42218 | 1191 ft | 91 kts | 14° |
| 2026-04-23 20:06 | 52.39176 | 5.42425 | 1193 ft | 88 kts | 8° |
| 2026-04-23 20:07 | 52.39776 | 5.42570 | 1191 ft | 87 kts | 7° |
| 2026-04-23 20:07 | 52.40369 | 5.42722 | 1193 ft | 85 kts | 14° |
| 2026-04-23 20:07 | 52.40852 | 5.43262 | 1145 ft | 87 kts | 44° |
| 2026-04-23 20:07 | 52.41232 | 5.44010 | 1100 ft | 83 kts | 43° |
| 2026-04-23 20:08 | 52.41591 | 5.44778 | 1024 ft | 86 kts | 45° |
| 2026-04-23 20:08 | 52.42039 | 5.45563 | 816 ft | 102 kts | 41° |
| 2026-04-23 20:08 | 52.42465 | 5.46331 | 690 ft | 84 kts | 44° |
| 2026-04-23 20:08 | 52.42859 | 5.47081 | 533 ft | 92 kts | 45° |
| 2026-04-23 20:09 | 52.43308 | 5.47907 | 421 ft | 99 kts | 42° |
| 2026-04-23 20:09 | 52.43794 | 5.48728 | 343 ft | 98 kts | 42° |
| 2026-04-23 20:09 | 52.44205 | 5.49466 | 237 ft | 78 kts | 44° |
| 2026-04-23 20:09 | 52.44536 | 5.50063 | 181 ft | 68 kts | 46° |
| 2026-04-23 20:10 | 52.44858 | 5.50633 | 121 ft | 68 kts | 48° |
| 2026-04-23 20:10 | 52.45161 | 5.51177 | 56 ft | 55 kts | 45° |
| 2026-04-23 20:10 | 52.45317 | 5.51503 | 17 ft | 23 kts | 126° |
| 2026-04-23 20:10 | 52.45254 | 5.51604 | 6 ft | 2 kts | 127° |
| 2026-04-23 20:11 | 52.45227 | 5.51670 | 2 ft | 15 kts | 50° |
| 2026-04-23 20:11 | 52.45322 | 5.51877 | 7 ft | 16 kts | 69° |
| 2026-04-23 20:11 | 52.45320 | 5.51936 | -7 ft | 0 kts | 315° |
| 2026-04-23 20:11 | 52.45320 | 5.51935 | -11 ft | 0 kts | 318° |